Aviation Digital Data Service (ADDS)

Output produced by METARs form (0343 UTC 23 November 2017)
found at http://www.aviationweather.gov/adds/metars/
 
TAF MPPA 222210Z 2300/2406 21006KT 9999 FEW015CB SCT017 
     BECMG 2304/2308 00000KT FEW013CB SCT015 
     BECMG 2308/2312 30004KT 9000 SCT017
       
TAF MPDA 222210Z 2300/2312 22008KT 7000 TSRA FEW013CB SCT080 
     BECMG 2304/2308 20006KT 8000 RA SCT015 SCT070
       
TAF MPMG 222210Z 2300/2312 27006KT 9999 FEW015CB SCT080 
     PROB30 
     TEMPO 2304/2308 00000KT 9000 -RA SCT016
       
TAF MPTO 222210Z 2300/2406 22006KT 9999 FEW015CB SCT017 
     BECMG 2304/2308 FEW013CB SCT015 
     BECMG 2308/2312 00000KT 9000 SCT017